Time;durP1;ratioP1;P1;durP2;ratioP2;P2;SDS_P1;SDS_P2;PMS_P1;PMS_P2;Temp;Humidity;BMP_temperature;BMP_pressure;BME280_temperature;BME280_humidity;BME280_pressure;Samples;Min_cycle;Max_cycle;Signal;HPM_P1;HPM_P2
2024/01/18 00:00:52;;;;;;;0.60;0.60;;;18.70;56.60;;;;;;5047567;28;20182;-70
2024/01/18 00:03:18;;;;;;;0.55;0.55;;;18.70;56.60;;;;;;5052481;28;20194;-70
2024/01/18 00:05:43;;;;;;;0.40;0.40;;;18.70;56.60;;;;;;5061967;28;20199;-71
2024/01/18 00:08:09;;;;;;;0.70;0.70;;;18.70;56.60;;;;;;5063886;28;20234;-71
2024/01/18 00:10:35;;;;;;;0.52;0.52;;;18.70;56.60;;;;;;5070976;28;20182;-70
2024/01/18 00:13:01;;;;;;;0.60;0.60;;;18.70;56.60;;;;;;5043347;28;20187;-71
2024/01/18 00:15:26;;;;;;;0.60;0.60;;;18.70;56.60;;;;;;5067831;28;20183;-71
2024/01/18 00:17:52;;;;;;;0.55;0.55;;;18.70;56.60;;;;;;5064692;28;20208;-70
2024/01/18 00:20:18;;;;;;;0.50;0.50;;;18.70;56.60;;;;;;5043193;28;20277;-71
2024/01/18 00:22:44;;;;;;;0.75;0.75;;;18.70;56.60;;;;;;5044936;28;20193;-71
2024/01/18 00:25:10;;;;;;;0.50;0.50;;;18.70;56.60;;;;;;5067566;28;20231;-70
2024/01/18 00:27:36;;;;;;;0.50;0.50;;;18.70;56.70;;;;;;5052860;28;20723;-70
2024/01/18 00:30:02;;;;;;;0.82;0.77;;;18.70;56.60;;;;;;5044976;28;20194;-70
2024/01/18 00:32:27;;;;;;;0.60;0.60;;;18.70;56.70;;;;;;5042674;28;20281;-70
2024/01/18 00:34:53;;;;;;;0.47;0.47;;;18.70;56.60;;;;;;5059090;28;20191;-70
2024/01/18 00:37:19;;;;;;;0.57;0.57;;;18.70;56.60;;;;;;5041098;28;20213;-71
2024/01/18 00:39:45;;;;;;;0.50;0.50;;;18.70;56.70;;;;;;5068738;28;20206;-70
2024/01/18 00:42:10;;;;;;;0.60;0.60;;;18.70;56.70;;;;;;5067634;28;20212;-71
2024/01/18 00:44:36;;;;;;;0.50;0.50;;;18.70;56.70;;;;;;5050415;28;20665;-71
2024/01/18 00:47:02;;;;;;;0.68;0.68;;;18.70;56.70;;;;;;5063644;28;20206;-70
2024/01/18 00:49:28;;;;;;;0.50;0.50;;;18.70;56.70;;;;;;5058418;28;20194;-70
2024/01/18 00:51:54;;;;;;;0.50;0.50;;;18.70;56.70;;;;;;5063506;28;20196;-70
2024/01/18 00:54:20;;;;;;;0.52;0.50;;;18.70;56.70;;;;;;5042425;28;20185;-70
2024/01/18 00:56:46;;;;;;;0.47;0.47;;;18.70;56.70;;;;;;5060983;28;20335;-70
2024/01/18 00:59:11;;;;;;;0.60;0.60;;;18.70;56.80;;;;;;5058516;28;20250;-71
2024/01/18 01:01:37;;;;;;;0.60;0.60;;;18.70;56.70;;;;;;5036638;28;20188;-71
2024/01/18 01:04:03;;;;;;;0.60;0.60;;;18.70;56.70;;;;;;5050860;28;20197;-71
2024/01/18 01:06:29;;;;;;;1.38;0.55;;;18.70;56.80;;;;;;5035384;28;20209;-70
2024/01/18 01:08:55;;;;;;;0.50;0.50;;;18.70;56.80;;;;;;5058874;28;20196;-71
2024/01/18 01:11:20;;;;;;;0.40;0.40;;;18.70;56.80;;;;;;5058085;28;20215;-71
2024/01/18 01:13:48;;;;;;;0.50;0.50;;;18.70;56.80;;;;;;5050321;28;20193;-70
2024/01/18 01:16:14;;;;;;;0.57;0.57;;;18.70;56.80;;;;;;5060202;28;20308;-70
2024/01/18 01:18:39;;;;;;;0.57;0.57;;;18.70;56.80;;;;;;5037073;28;20323;-71
2024/01/18 01:21:05;;;;;;;0.50;0.50;;;18.70;57.40;;;;;;5056803;28;20192;-70
2024/01/18 01:23:31;;;;;;;0.30;0.30;;;18.70;56.80;;;;;;5046307;28;20186;-71
2024/01/18 01:25:58;;;;;;;1.02;0.52;;;18.70;56.80;;;;;;5053287;28;20199;-71
2024/01/18 01:28:24;;;;;;;0.50;0.50;;;18.70;56.80;;;;;;5058822;28;20317;-70
2024/01/18 01:30:49;;;;;;;0.50;0.50;;;18.70;56.80;;;;;;5043380;28;20732;-70
2024/01/18 01:33:15;;;;;;;0.47;0.47;;;18.70;56.80;;;;;;5036443;28;20614;-71
2024/01/18 01:35:41;;;;;;;0.40;0.40;;;18.70;56.80;;;;;;5033176;28;20186;-70
2024/01/18 01:38:07;;;;;;;0.50;0.50;;;18.70;56.80;;;;;;5055677;28;20198;-70
2024/01/18 01:40:32;;;;;;;0.50;0.50;;;18.70;56.80;;;;;;5032601;28;20187;-70
2024/01/18 01:42:58;;;;;;;0.30;0.30;;;18.70;56.80;;;;;;5065794;28;20209;-70
2024/01/18 01:45:24;;;;;;;0.77;0.60;;;18.70;57.40;;;;;;5063460;28;20561;-70
2024/01/18 01:47:50;;;;;;;0.57;0.40;;;18.70;56.80;;;;;;5065868;28;20181;-70
2024/01/18 01:50:17;;;;;;;0.40;0.40;;;18.70;56.80;;;;;;5055907;28;20187;-71
2024/01/18 01:52:44;;;;;;;0.40;0.40;;;18.70;56.80;;;;;;5049295;28;20654;-71
2024/01/18 01:55:12;;;;;;;0.47;0.47;;;18.70;56.90;;;;;;5047716;28;20209;-69
2024/01/18 01:57:39;;;;;;;0.50;0.50;;;18.70;56.90;;;;;;5064652;28;20225;-69
2024/01/18 02:00:06;;;;;;;0.50;0.50;;;18.70;56.80;;;;;;5049401;28;20211;-69
2024/01/18 02:02:35;;;;;;;0.40;0.40;;;18.70;56.90;;;;;;5057696;28;20195;-70
2024/01/18 02:05:01;;;;;;;0.52;0.52;;;18.80;57.00;;;;;;5042086;28;20657;-70
2024/01/18 02:07:29;;;;;;;0.50;0.50;;;18.80;57.00;;;;;;5057350;28;20227;-70
2024/01/18 02:09:55;;;;;;;0.50;0.50;;;18.80;56.90;;;;;;5054516;28;20201;-70
2024/01/18 02:12:24;;;;;;;0.60;0.50;;;18.80;57.00;;;;;;5055242;28;20218;-70
2024/01/18 02:14:51;;;;;;;0.40;0.40;;;18.80;57.00;;;;;;5051811;28;20285;-71
2024/01/18 02:17:17;;;;;;;0.50;0.50;;;18.80;57.00;;;;;;5051185;28;20308;-69
2024/01/18 02:19:42;;;;;;;0.80;0.50;;;18.80;57.00;;;;;;5038255;28;20282;-70
2024/01/18 02:22:12;;;;;;;0.50;0.50;;;18.80;57.00;;;;;;5063958;28;20193;-69
2024/01/18 02:24:49;;;;;;;0.40;0.40;;;18.80;57.00;;;;;;5061737;28;20194;-69
2024/01/18 02:27:15;;;;;;;0.40;0.40;;;18.80;57.60;;;;;;5047744;28;20206;-70
2024/01/18 02:29:41;;;;;;;0.30;0.30;;;18.80;57.00;;;;;;5063771;28;20197;-69
2024/01/18 02:32:07;;;;;;;0.50;0.50;;;18.80;57.10;;;;;;5057721;28;20201;-69
2024/01/18 02:34:39;;;;;;;0.50;0.50;;;18.80;57.10;;;;;;5061606;28;20218;-70
2024/01/18 02:37:06;;;;;;;0.40;0.40;;;18.80;57.10;;;;;;5043901;28;20209;-69
2024/01/18 02:39:32;;;;;;;0.65;0.50;;;18.80;57.10;;;;;;5033598;28;20249;-69
2024/01/18 02:41:59;;;;;;;0.43;0.43;;;18.80;57.00;;;;;;5045775;28;20232;-70
2024/01/18 02:44:26;;;;;;;0.50;0.50;;;18.80;57.10;;;;;;5038870;28;20796;-69
2024/01/18 02:46:52;;;;;;;0.40;0.40;;;18.80;57.10;;;;;;5047156;28;20252;-69
2024/01/18 02:49:18;;;;;;;1.20;0.40;;;18.80;57.10;;;;;;5061588;28;20327;-69
2024/01/18 02:51:44;;;;;;;0.50;0.50;;;18.80;57.10;;;;;;5054020;28;20265;-70
2024/01/18 02:54:10;;;;;;;0.40;0.40;;;18.80;57.10;;;;;;5055045;28;20193;-70
2024/01/18 02:56:37;;;;;;;0.57;0.52;;;18.80;57.10;;;;;;5056333;28;20318;-70
2024/01/18 02:59:04;;;;;;;0.70;0.40;;;18.80;57.20;;;;;;5049694;28;20238;-69
2024/01/18 03:01:30;;;;;;;0.40;0.40;;;18.80;57.10;;;;;;5033570;28;20180;-70
2024/01/18 03:03:57;;;;;;;0.65;0.57;;;18.80;57.20;;;;;;5045364;28;20195;-69
2024/01/18 03:06:23;;;;;;;0.35;0.35;;;18.80;57.20;;;;;;5047409;28;20209;-70
2024/01/18 03:08:49;;;;;;;0.40;0.40;;;18.80;57.20;;;;;;5050049;28;20193;-70
2024/01/18 03:11:15;;;;;;;0.50;0.50;;;18.70;57.10;;;;;;5042541;28;20193;-69
2024/01/18 03:13:41;;;;;;;0.60;0.47;;;18.80;57.20;;;;;;5061506;28;20580;-69
2024/01/18 03:16:08;;;;;;;0.60;0.60;;;18.80;57.20;;;;;;5045483;28;20225;-69
2024/01/18 03:18:35;;;;;;;0.50;0.50;;;18.80;57.20;;;;;;5061275;28;20218;-70
2024/01/18 03:21:05;;;;;;;0.55;0.55;;;18.80;57.20;;;;;;5052048;28;20190;-70
2024/01/18 03:23:31;;;;;;;0.40;0.40;;;18.80;57.20;;;;;;5043510;28;20210;-70
2024/01/18 03:25:56;;;;;;;0.40;0.40;;;18.80;57.20;;;;;;5065465;28;20645;-70
2024/01/18 03:28:22;;;;;;;0.50;0.40;;;18.80;57.20;;;;;;5057134;28;20189;-70
2024/01/18 03:30:48;;;;;;;0.50;0.50;;;18.80;57.20;;;;;;5043393;28;20190;-70
2024/01/18 03:33:14;;;;;;;0.40;0.40;;;18.80;57.20;;;;;;5056702;28;20199;-70
2024/01/18 03:35:41;;;;;;;0.40;0.40;;;18.80;57.20;;;;;;5045329;28;20543;-70
2024/01/18 03:38:07;;;;;;;0.40;0.40;;;18.80;57.20;;;;;;5042040;28;20236;-70
2024/01/18 03:40:33;;;;;;;0.43;0.43;;;18.80;57.30;;;;;;5078691;28;20226;-70
2024/01/18 03:42:58;;;;;;;0.50;0.50;;;18.80;57.20;;;;;;5056463;28;20235;-69
2024/01/18 03:45:24;;;;;;;0.50;0.50;;;18.80;57.20;;;;;;5056600;28;20220;-70
2024/01/18 03:47:50;;;;;;;0.20;0.20;;;18.80;57.30;;;;;;5042425;28;20189;-68
2024/01/18 03:50:16;;;;;;;0.38;0.38;;;18.70;57.20;;;;;;5062963;28;20232;-69
2024/01/18 03:52:42;;;;;;;0.43;0.43;;;18.80;57.20;;;;;;5046554;28;20199;-69
2024/01/18 03:55:08;;;;;;;0.43;0.43;;;18.80;57.20;;;;;;5036967;28;20277;-69
2024/01/18 03:57:35;;;;;;;0.65;0.40;;;18.80;57.20;;;;;;5031342;28;20298;-69
2024/01/18 04:00:02;;;;;;;0.43;0.40;;;18.80;57.30;;;;;;5056293;28;20238;-70
2024/01/18 04:02:30;;;;;;;0.40;0.40;;;18.80;57.30;;;;;;5038788;28;20187;-70
2024/01/18 04:04:55;;;;;;;0.40;0.40;;;18.80;57.30;;;;;;5043005;28;20198;-69
2024/01/18 04:07:22;;;;;;;0.40;0.40;;;18.80;57.30;;;;;;5047584;28;20202;-70
2024/01/18 04:09:48;;;;;;;0.40;0.40;;;18.80;57.30;;;;;;5058596;28;20190;-70
2024/01/18 04:12:14;;;;;;;0.30;0.30;;;18.80;57.30;;;;;;5059632;28;20195;-70
2024/01/18 04:14:43;;;;;;;0.30;0.30;;;18.80;57.30;;;;;;5039261;28;20236;-69
2024/01/18 04:17:12;;;;;;;0.52;0.50;;;18.80;57.30;;;;;;5046628;28;20227;-70
2024/01/18 04:19:39;;;;;;;0.40;0.40;;;18.80;57.30;;;;;;5038759;28;20223;-69
2024/01/18 04:22:06;;;;;;;0.40;0.40;;;18.80;57.30;;;;;;5044847;28;20210;-69
2024/01/18 04:24:32;;;;;;;0.40;0.38;;;18.80;57.30;;;;;;5047223;28;20569;-69
2024/01/18 04:26:58;;;;;;;0.40;0.40;;;18.80;57.30;;;;;;5047522;28;20257;-69
2024/01/18 04:29:24;;;;;;;0.40;0.40;;;18.80;57.30;;;;;;5046453;28;20206;-70
2024/01/18 04:31:49;;;;;;;0.40;0.40;;;18.80;57.30;;;;;;5050570;28;20194;-70
2024/01/18 04:34:15;;;;;;;0.30;0.30;;;18.70;57.20;;;;;;5045756;28;20182;-70
2024/01/18 04:36:41;;;;;;;0.40;0.40;;;18.80;57.30;;;;;;5039612;28;20235;-70
2024/01/18 04:39:07;;;;;;;0.40;0.40;;;18.80;57.30;;;;;;5049998;28;20214;-70
2024/01/18 04:41:32;;;;;;;0.55;0.38;;;18.80;57.30;;;;;;5046881;28;20198;-70
2024/01/18 04:43:58;;;;;;;0.63;0.45;;;18.80;57.30;;;;;;5033363;28;20239;-69
2024/01/18 04:46:25;;;;;;;0.30;0.30;;;18.80;57.30;;;;;;5030674;28;20203;-70
2024/01/18 04:48:51;;;;;;;0.40;0.40;;;18.70;57.30;;;;;;5045216;28;20201;-70
2024/01/18 04:51:19;;;;;;;0.30;0.30;;;18.80;57.30;;;;;;5062862;28;20661;-69
2024/01/18 04:53:45;;;;;;;0.30;0.30;;;18.80;57.30;;;;;;5047166;28;20198;-69
2024/01/18 04:56:10;;;;;;;0.30;0.30;;;18.80;57.40;;;;;;5049470;28;20219;-70
2024/01/18 04:58:36;;;;;;;0.90;0.40;;;18.80;57.30;;;;;;5047770;28;20218;-69
2024/01/18 05:01:02;;;;;;;0.47;0.47;;;18.80;57.30;;;;;;5049984;28;20205;-69
2024/01/18 05:03:28;;;;;;;0.45;0.45;;;18.80;57.40;;;;;;5057943;28;20231;-69
2024/01/18 05:05:56;;;;;;;0.40;0.40;;;18.80;57.30;;;;;;5058161;28;20195;-70
2024/01/18 05:08:22;;;;;;;0.40;0.40;;;18.80;57.40;;;;;;5058401;28;20187;-70
2024/01/18 05:10:49;;;;;;;0.40;0.40;;;18.80;57.30;;;;;;5055293;28;20194;-70
2024/01/18 05:13:15;;;;;;;0.40;0.40;;;18.80;57.30;;;;;;5049710;28;20183;-70
2024/01/18 05:15:40;;;;;;;0.30;0.30;;;18.80;57.30;;;;;;5033857;28;20185;-69
2024/01/18 05:18:06;;;;;;;0.40;0.40;;;18.80;57.40;;;;;;5036329;28;20237;-69
2024/01/18 05:20:33;;;;;;;0.20;0.20;;;18.80;57.40;;;;;;5042022;28;20222;-70
2024/01/18 05:22:59;;;;;;;0.30;0.30;;;18.80;57.40;;;;;;5047361;28;20182;-69
2024/01/18 05:25:25;;;;;;;0.30;0.30;;;18.80;57.40;;;;;;5040786;28;20194;-70
2024/01/18 05:27:51;;;;;;;0.30;0.30;;;18.80;57.30;;;;;;5042248;28;20182;-69
2024/01/18 05:30:17;;;;;;;0.30;0.30;;;18.80;57.30;;;;;;5037363;28;20280;-69
2024/01/18 05:32:43;;;;;;;0.45;0.45;;;18.80;57.40;;;;;;5057321;28;20191;-69
2024/01/18 05:35:09;;;;;;;0.60;0.30;;;18.80;57.30;;;;;;5037227;28;20194;-69
2024/01/18 05:37:35;;;;;;;0.30;0.30;;;18.80;57.30;;;;;;5056067;28;20214;-70
2024/01/18 05:40:00;;;;;;;0.40;0.40;;;18.80;57.40;;;;;;5052764;28;20237;-69
2024/01/18 05:42:27;;;;;;;0.40;0.40;;;18.80;57.30;;;;;;5040055;28;20189;-69
2024/01/18 05:44:53;;;;;;;0.40;0.40;;;18.80;57.30;;;;;;5053638;28;20203;-69
2024/01/18 05:47:22;;;;;;;0.40;0.40;;;18.80;57.40;;;;;;5061218;28;20617;-69
2024/01/18 05:49:48;;;;;;;0.40;0.40;;;18.80;57.40;;;;;;5037285;28;20193;-70
2024/01/18 05:52:15;;;;;;;0.40;0.40;;;18.80;57.40;;;;;;5057787;28;20186;-69
2024/01/18 05:54:41;;;;;;;0.20;0.20;;;18.80;57.40;;;;;;5053564;28;20194;-70
2024/01/18 05:57:08;;;;;;;0.40;0.40;;;18.80;57.40;;;;;;5041859;28;20197;-71
2024/01/18 05:59:33;;;;;;;0.45;0.30;;;18.80;57.40;;;;;;5055835;28;20221;-69
2024/01/18 06:02:00;;;;;;;0.30;0.30;;;18.80;57.40;;;;;;5056185;28;20274;-69
2024/01/18 06:04:25;;;;;;;0.52;0.43;;;18.80;57.40;;;;;;5055895;28;20384;-69
2024/01/18 06:06:51;;;;;;;0.40;0.40;;;18.80;57.40;;;;;;5050656;28;20299;-69
2024/01/18 06:09:18;;;;;;;0.32;0.32;;;18.80;57.40;;;;;;5053821;28;20174;-69
2024/01/18 06:11:45;;;;;;;0.47;0.47;;;18.80;57.40;;;;;;5056393;28;20256;-69
2024/01/18 06:14:12;;;;;;;0.50;0.50;;;18.80;57.50;;;;;;5055361;28;20244;-69
2024/01/18 06:16:38;;;;;;;0.40;0.40;;;18.80;57.50;;;;;;5057003;28;20268;-69
2024/01/18 06:19:05;;;;;;;0.50;0.50;;;18.80;57.50;;;;;;5043316;28;20245;-69
2024/01/18 06:21:30;;;;;;;0.40;0.40;;;18.80;57.40;;;;;;5028414;28;20180;-69
2024/01/18 06:23:56;;;;;;;0.50;0.50;;;18.80;57.40;;;;;;5049972;28;20187;-69
2024/01/18 06:26:22;;;;;;;0.50;0.50;;;18.80;57.40;;;;;;5053476;28;20201;-69
2024/01/18 06:28:48;;;;;;;0.95;0.60;;;18.80;57.40;;;;;;5035922;28;20183;-69
2024/01/18 06:31:14;;;;;;;0.77;0.50;;;18.80;57.40;;;;;;5050386;28;20182;-69
2024/01/18 06:33:40;;;;;;;0.50;0.40;;;18.80;58.10;;;;;;5058750;28;20182;-69
2024/01/18 06:36:09;;;;;;;0.50;0.50;;;18.80;57.50;;;;;;5052437;28;20206;-69
2024/01/18 06:38:35;;;;;;;0.50;0.40;;;18.80;57.50;;;;;;5041293;28;20179;-69
2024/01/18 06:41:01;;;;;;;0.60;0.52;;;18.80;57.50;;;;;;5040826;28;20197;-69
2024/01/18 06:43:27;;;;;;;0.40;0.40;;;18.80;57.50;;;;;;5058071;28;20217;-69
2024/01/18 06:45:55;;;;;;;1.75;0.60;;;18.80;57.50;;;;;;5055235;28;20649;-69
2024/01/18 06:48:22;;;;;;;2.42;0.70;;;18.80;57.40;;;;;;5041079;28;20267;-69
2024/01/18 06:50:48;;;;;;;0.50;0.50;;;18.80;57.50;;;;;;5029797;28;20206;-68
2024/01/18 06:53:14;;;;;;;0.45;0.45;;;18.80;57.40;;;;;;5044132;28;20211;-69
2024/01/18 06:55:40;;;;;;;0.98;0.50;;;18.80;57.40;;;;;;5056759;28;20188;-68
2024/01/18 06:58:06;;;;;;;0.45;0.45;;;18.80;57.50;;;;;;5056262;28;20281;-69
2024/01/18 07:00:32;;;;;;;0.63;0.63;;;18.80;57.50;;;;;;5040043;28;20293;-69
2024/01/18 07:02:58;;;;;;;0.60;0.60;;;18.80;57.50;;;;;;5056870;28;20194;-69
2024/01/18 07:05:24;;;;;;;0.57;0.40;;;18.80;57.50;;;;;;5040260;28;20280;-69
2024/01/18 07:07:50;;;;;;;0.40;0.40;;;18.80;57.60;;;;;;5057190;28;20204;-69
2024/01/18 07:10:17;;;;;;;0.73;0.60;;;18.80;57.50;;;;;;5038534;28;20181;-69
2024/01/18 07:12:44;;;;;;;1.15;0.50;;;18.80;57.50;;;;;;5054339;28;20245;-69
2024/01/18 07:15:10;;;;;;;0.80;0.60;;;18.80;57.50;;;;;;5075169;28;20197;-69
2024/01/18 07:17:36;;;;;;;0.75;0.50;;;18.80;57.60;;;;;;5048596;28;20214;-69
2024/01/18 07:20:04;;;;;;;1.08;0.60;;;18.80;57.50;;;;;;5064393;28;20222;-69
2024/01/18 07:22:30;;;;;;;1.15;0.60;;;18.80;57.60;;;;;;5056109;28;20278;-69
2024/01/18 07:24:56;;;;;;;0.60;0.60;;;18.80;57.60;;;;;;5050782;28;20220;-69
2024/01/18 07:27:22;;;;;;;0.60;0.60;;;18.80;57.60;;;;;;5056700;28;20198;-69
2024/01/18 07:29:49;;;;;;;1.10;0.50;;;18.80;57.50;;;;;;5054269;28;20244;-69
2024/01/18 07:32:16;;;;;;;0.88;0.60;;;18.90;57.60;;;;;;5037510;28;20181;-69
2024/01/18 07:34:42;;;;;;;1.52;0.70;;;18.80;57.60;;;;;;5030466;28;20236;-69
2024/01/18 07:37:12;;;;;;;1.58;0.80;;;18.80;57.60;;;;;;5036077;28;20207;-70
2024/01/18 07:39:37;;;;;;;0.85;0.65;;;18.80;57.60;;;;;;5026626;28;20285;-69
2024/01/18 07:42:04;;;;;;;1.27;0.50;;;18.80;57.60;;;;;;5036660;28;20198;-69
2024/01/18 07:44:30;;;;;;;1.75;0.82;;;18.80;57.60;;;;;;5030610;28;20201;-69
2024/01/18 07:46:55;;;;;;;0.40;0.40;;;18.80;57.60;;;;;;5053148;28;20207;-69
2024/01/18 07:49:21;;;;;;;1.25;0.65;;;18.80;57.60;;;;;;5038448;28;20198;-69
2024/01/18 07:51:49;;;;;;;1.08;0.50;;;18.90;57.70;;;;;;5031355;28;20209;-69
2024/01/18 07:54:15;;;;;;;1.08;0.77;;;18.80;57.60;;;;;;5056115;28;20194;-69
2024/01/18 07:56:41;;;;;;;0.80;0.65;;;18.80;57.60;;;;;;5046309;28;20246;-69
2024/01/18 07:59:08;;;;;;;0.93;0.63;;;18.80;57.60;;;;;;5048471;28;20265;-69
2024/01/18 08:01:34;;;;;;;1.10;0.73;;;18.80;57.60;;;;;;5051138;28;20191;-69
2024/01/18 08:03:59;;;;;;;1.40;0.60;;;18.90;57.70;;;;;;5041728;28;20198;-69
2024/01/18 08:06:25;;;;;;;1.08;0.60;;;18.90;57.70;;;;;;5054748;28;20281;-69
2024/01/18 08:08:51;;;;;;;1.15;0.80;;;18.80;57.60;;;;;;5036013;28;20190;-69
2024/01/18 08:11:18;;;;;;;1.13;0.50;;;18.80;57.60;;;;;;5051927;28;20673;-69
2024/01/18 08:13:43;;;;;;;0.90;0.60;;;18.80;57.70;;;;;;5035806;28;20275;-69
2024/01/18 08:16:10;;;;;;;0.40;0.40;;;18.90;57.70;;;;;;5070263;28;20227;-69
2024/01/18 08:18:36;;;;;;;0.60;0.50;;;18.90;57.70;;;;;;5040243;28;20178;-69
2024/01/18 08:21:03;;;;;;;0.68;0.52;;;18.90;57.70;;;;;;5035292;28;20194;-69
2024/01/18 08:23:29;;;;;;;0.80;0.60;;;18.80;57.60;;;;;;5038938;28;20219;-69
2024/01/18 08:25:55;;;;;;;2.15;0.60;;;18.90;57.70;;;;;;5031899;28;20230;-69
2024/01/18 08:28:22;;;;;;;0.73;0.60;;;18.90;57.70;;;;;;5050007;28;20603;-69
2024/01/18 08:30:49;;;;;;;0.77;0.70;;;18.80;57.70;;;;;;5066425;28;20230;-69
2024/01/18 08:33:15;;;;;;;0.60;0.60;;;18.80;57.70;;;;;;5027949;28;20187;-69
2024/01/18 08:35:42;;;;;;;0.57;0.57;;;18.80;57.70;;;;;;5028881;28;20189;-69
2024/01/18 08:38:08;;;;;;;0.50;0.50;;;18.90;57.80;;;;;;5053029;28;20186;-69
2024/01/18 08:40:34;;;;;;;1.58;0.60;;;18.90;57.80;;;;;;5034785;28;20210;-69
2024/01/18 08:43:01;;;;;;;1.65;0.60;;;18.80;57.70;;;;;;5045927;28;20269;-69
2024/01/18 08:45:27;;;;;;;0.40;0.40;;;18.90;57.80;;;;;;5030586;28;20183;-69
2024/01/18 08:47:53;;;;;;;0.75;0.45;;;18.90;57.80;;;;;;5031803;28;20218;-69
2024/01/18 08:50:20;;;;;;;0.60;0.60;;;18.90;57.80;;;;;;5036624;28;20216;-69
2024/01/18 08:52:51;;;;;;;1.00;0.50;;;18.90;57.80;;;;;;5045075;28;20573;-69
2024/01/18 08:55:18;;;;;;;0.70;0.70;;;18.80;57.80;;;;;;5042715;28;20264;-69
2024/01/18 08:57:44;;;;;;;0.63;0.60;;;18.90;57.80;;;;;;5050131;28;20194;-71
2024/01/18 09:00:17;;;;;;;1.35;0.75;;;18.90;57.80;;;;;;5052314;28;20214;-71
2024/01/18 09:02:44;;;;;;;0.50;0.50;;;18.90;57.80;;;;;;5031964;28;20187;-71
2024/01/18 09:05:10;;;;;;;0.60;0.60;;;18.90;57.80;;;;;;5047325;28;20182;-72
2024/01/18 09:07:36;;;;;;;0.88;0.63;;;18.90;57.80;;;;;;5030615;28;20210;-71
2024/01/18 09:10:04;;;;;;;0.90;0.65;;;18.90;57.80;;;;;;5049590;28;20191;-71
2024/01/18 09:12:32;;;;;;;1.05;0.63;;;18.90;57.80;;;;;;5030780;28;20565;-71
2024/01/18 09:14:59;;;;;;;0.68;0.68;;;18.90;57.80;;;;;;5021897;28;20195;-71
2024/01/18 09:17:25;;;;;;;1.63;0.77;;;18.90;57.80;;;;;;5022244;28;20221;-71
2024/01/18 09:19:51;;;;;;;0.60;0.60;;;18.90;57.80;;;;;;5033094;28;20233;-71
2024/01/18 09:22:18;;;;;;;0.93;0.70;;;18.90;57.80;;;;;;5048025;28;20199;-71
2024/01/18 09:24:44;;;;;;;0.60;0.60;;;18.90;57.80;;;;;;5040128;28;20215;-71
2024/01/18 09:27:11;;;;;;;0.73;0.60;;;18.90;57.80;;;;;;5049183;28;20223;-71
2024/01/18 09:29:37;;;;;;;0.60;0.52;;;18.90;57.80;;;;;;5033805;28;20639;-71
2024/01/18 09:32:06;;;;;;;1.48;0.70;;;18.90;57.80;;;;;;5066455;28;20218;-71
2024/01/18 09:34:35;;;;;;;0.80;0.70;;;18.90;57.80;;;;;;5053724;28;20190;-71
2024/01/18 09:37:02;;;;;;;1.15;0.60;;;18.90;57.90;;;;;;5030806;28;20642;-71
2024/01/18 09:39:28;;;;;;;1.70;0.80;;;18.90;57.90;;;;;;5033211;28;20260;-71
2024/01/18 09:41:55;;;;;;;0.82;0.70;;;18.90;57.90;;;;;;5050059;28;20277;-71
2024/01/18 09:44:27;;;;;;;0.70;0.50;;;18.90;57.80;;;;;;5032360;28;20191;-71
2024/01/18 09:46:54;;;;;;;0.77;0.60;;;18.90;57.90;;;;;;5049689;28;20210;-71
2024/01/18 09:49:20;;;;;;;1.10;0.65;;;18.90;57.80;;;;;;5047361;28;20186;-71
2024/01/18 09:51:47;;;;;;;1.48;0.75;;;18.90;57.90;;;;;;5039289;28;20282;-71
2024/01/18 09:54:14;;;;;;;0.60;0.60;;;18.90;57.80;;;;;;5045705;28;20281;-71
2024/01/18 09:56:45;;;;;;;0.60;0.60;;;18.90;57.90;;;;;;5034714;28;20229;-71
2024/01/18 09:59:16;;;;;;;1.58;0.70;;;18.90;57.80;;;;;;5024610;28;20210;-71
2024/01/18 10:01:42;;;;;;;0.70;0.60;;;18.90;57.80;;;;;;5045835;28;20179;-71
2024/01/18 10:04:12;;;;;;;1.25;0.65;;;18.90;57.80;;;;;;5032786;28;20183;-71
2024/01/18 10:06:39;;;;;;;1.15;0.80;;;19.00;57.80;;;;;;5061729;28;20202;-70
2024/01/18 10:09:05;;;;;;;0.60;0.60;;;18.90;57.80;;;;;;5061576;28;20187;-71
2024/01/18 10:11:32;;;;;;;1.00;0.77;;;18.90;57.90;;;;;;5070942;28;20187;-71
2024/01/18 10:13:59;;;;;;;1.27;0.57;;;18.90;57.90;;;;;;5044302;28;20217;-71
2024/01/18 10:16:30;;;;;;;0.75;0.70;;;19.00;58.00;;;;;;5047626;28;20223;-71
2024/01/18 10:19:00;;;;;;;0.50;0.50;;;19.00;58.00;;;;;;5037935;28;20223;-70
2024/01/18 10:21:26;;;;;;;0.60;0.60;;;19.00;58.00;;;;;;5069065;28;20194;-71
2024/01/18 10:23:54;;;;;;;0.70;0.70;;;19.00;57.90;;;;;;5067299;28;20192;-71
2024/01/18 10:26:31;;;;;;;0.85;0.70;;;19.00;57.90;;;;;;5055325;28;20606;-71
2024/01/18 10:28:58;;;;;;;0.82;0.60;;;19.00;58.00;;;;;;5072420;28;20185;-71
2024/01/18 10:31:25;;;;;;;0.52;0.52;;;19.00;57.90;;;;;;5072164;28;20189;-71
2024/01/18 10:33:51;;;;;;;1.02;0.60;;;19.00;57.90;;;;;;5054560;28;20191;-71
2024/01/18 10:36:19;;;;;;;0.57;0.57;;;19.00;57.90;;;;;;5058300;28;20227;-71
2024/01/18 10:38:45;;;;;;;0.57;0.57;;;19.00;57.90;;;;;;5056912;28;20191;-71
2024/01/18 10:41:11;;;;;;;0.70;0.70;;;19.00;57.90;;;;;;5055498;28;20265;-71
2024/01/18 10:43:38;;;;;;;0.50;0.50;;;19.00;57.90;;;;;;5054878;28;20195;-71
2024/01/18 10:46:05;;;;;;;0.70;0.70;;;19.00;57.90;;;;;;5060944;28;20261;-71
2024/01/18 10:48:35;;;;;;;0.50;0.45;;;19.00;57.90;;;;;;5065187;28;20213;-71
2024/01/18 10:51:05;;;;;;;0.68;0.68;;;19.00;57.90;;;;;;5059859;28;20186;-71
2024/01/18 10:53:33;;;;;;;0.75;0.60;;;19.00;57.90;;;;;;5079360;28;20185;-71
2024/01/18 10:56:01;;;;;;;0.60;0.55;;;19.00;58.00;;;;;;5054489;28;20292;-71
2024/01/18 10:58:27;;;;;;;0.40;0.40;;;19.00;58.00;;;;;;5063476;28;20252;-71
2024/01/18 11:00:54;;;;;;;0.70;0.60;;;19.00;58.00;;;;;;5057065;28;20210;-71
2024/01/18 11:03:20;;;;;;;0.43;0.43;;;19.00;58.00;;;;;;5053177;28;20182;-71
2024/01/18 11:05:50;;;;;;;1.05;0.68;;;19.00;58.00;;;;;;5063304;28;20205;-71
2024/01/18 11:08:20;;;;;;;0.65;0.65;;;19.00;58.00;;;;;;5043469;28;20182;-71
2024/01/18 11:10:47;;;;;;;0.60;0.60;;;19.00;58.00;;;;;;5058079;28;20190;-71
2024/01/18 11:13:15;;;;;;;0.50;0.50;;;19.00;58.00;;;;;;5045133;28;20276;-71
2024/01/18 11:15:44;;;;;;;0.88;0.63;;;19.00;58.00;;;;;;5052228;28;20190;-71
2024/01/18 11:18:14;;;;;;;0.93;0.60;;;19.00;58.10;;;;;;5086341;28;20189;-71
2024/01/18 11:20:58;;;;;;;0.68;0.47;;;19.00;58.10;;;;;;5069941;28;20201;-71
2024/01/18 11:23:53;;;;;;;0.60;0.60;;;19.00;58.10;;;;;;5055477;28;20196;-72
2024/01/18 11:26:22;;;;;;;0.90;0.70;;;19.00;58.70;;;;;;5054392;28;20291;-71
2024/01/18 11:28:48;;;;;;;1.50;0.70;;;19.00;58.10;;;;;;5049558;28;20186;-71
2024/01/18 11:31:14;;;;;;;0.63;0.60;;;19.00;58.10;;;;;;5045034;28;20194;-72
2024/01/18 11:33:40;;;;;;;0.60;0.52;;;19.00;58.10;;;;;;5062637;28;20178;-71
2024/01/18 11:36:09;;;;;;;0.40;0.40;;;19.00;58.10;;;;;;5045487;28;20209;-71
2024/01/18 11:38:45;;;;;;;0.60;0.60;;;19.00;58.10;;;;;;5061278;28;20220;-71
2024/01/18 11:41:22;;;;;;;0.43;0.43;;;19.00;58.10;;;;;;5051925;28;20205;-71
2024/01/18 11:44:02;;;;;;;0.47;0.45;;;19.00;58.10;;;;;;5057693;28;20189;-71
2024/01/18 11:46:39;;;;;;;0.50;0.50;;;18.90;58.00;;;;;;5050375;28;20292;-71
2024/01/18 11:49:06;;;;;;;1.35;0.55;;;19.00;58.10;;;;;;5045282;28;20208;-71
2024/01/18 11:51:33;;;;;;;0.73;0.70;;;18.90;58.00;;;;;;5047413;28;20194;-71
2024/01/18 11:54:02;;;;;;;0.55;0.55;;;19.00;58.00;;;;;;5051181;28;20183;-71
2024/01/18 11:56:28;;;;;;;0.63;0.50;;;18.90;58.00;;;;;;5060009;28;20297;-71
2024/01/18 11:58:58;;;;;;;0.60;0.60;;;18.90;58.00;;;;;;5051567;28;20225;-72
2024/01/18 12:01:25;;;;;;;0.30;0.30;;;18.90;58.00;;;;;;5036125;28;20202;-71
2024/01/18 12:03:52;;;;;;;0.70;0.70;;;19.00;58.00;;;;;;5042755;28;20251;-71
2024/01/18 12:06:19;;;;;;;0.60;0.60;;;19.00;58.00;;;;;;5059486;28;20270;-71
2024/01/18 12:08:46;;;;;;;0.40;0.40;;;19.00;58.00;;;;;;5077130;28;20211;-71
2024/01/18 12:11:13;;;;;;;0.57;0.50;;;19.00;58.00;;;;;;5045022;28;20197;-71
2024/01/18 12:13:39;;;;;;;0.70;0.55;;;19.00;58.00;;;;;;5027644;28;20191;-71
2024/01/18 12:16:06;;;;;;;0.63;0.63;;;19.00;58.00;;;;;;5028964;28;20221;-71
2024/01/18 12:18:40;;;;;;;0.60;0.60;;;19.00;58.00;;;;;;5027613;28;20191;-71
2024/01/18 12:21:06;;;;;;;0.77;0.77;;;19.00;58.00;;;;;;5043896;28;20191;-71
2024/01/18 12:23:32;;;;;;;0.50;0.50;;;18.90;57.90;;;;;;5044173;28;20183;-71
2024/01/18 12:25:58;;;;;;;0.63;0.63;;;18.90;58.00;;;;;;5053591;28;20206;-72
2024/01/18 12:28:26;;;;;;;0.50;0.50;;;18.90;57.90;;;;;;5028197;28;20179;-72
2024/01/18 12:30:58;;;;;;;0.63;0.63;;;18.90;57.90;;;;;;5034434;28;20282;-71
2024/01/18 12:33:24;;;;;;;0.65;0.65;;;19.00;58.00;;;;;;5056646;28;20244;-71
2024/01/18 12:35:51;;;;;;;0.60;0.60;;;18.90;57.90;;;;;;5033356;28;20195;-71
2024/01/18 12:38:17;;;;;;;0.50;0.50;;;18.90;57.90;;;;;;5029734;28;20186;-71
2024/01/18 12:40:44;;;;;;;0.60;0.60;;;18.90;57.90;;;;;;5058436;28;20268;-71
2024/01/18 12:43:09;;;;;;;0.57;0.40;;;18.90;57.90;;;;;;5038701;28;20183;-72
2024/01/18 12:45:35;;;;;;;0.60;0.47;;;18.90;57.90;;;;;;5040046;28;20190;-72